Vorogovo, Russia
Current Conditions -  °F | °C
As of 1:00 AM on Tuesday 25 Nov 2014 (Local Time) from UNKL Reporting Station
Clear Clear  
Wind Chill: -31°   Ceiling: Unl
Heat Index: -13°   Visibility: 6mi
Dew Point: -20°   Wind: 9mph
Humidity: 70%   Direction: 260°W
Pressure: 29.88"   Gusts: NA
Location:  61.03°N, 89.63°E
Report Text: UNKL 241800Z 26004MPS CAVOK M25/M29 Q1012 NOSIG RMK QFE73329////55
Loading
Personal Weather Stations






























Interactive Weather Map New forecast layout! Learn more

10-Day Weather Forecast

Advertisements
Track Severe Weather on mobile